createdAt,value
2023-05-17T00:01:48.478Z,74.14
2023-05-17T00:04:15.152Z,74.28
2023-05-17T00:06:41.996Z,74.48
2023-05-17T00:09:09.164Z,74.67
2023-05-17T00:11:35.940Z,74.81
2023-05-17T00:14:02.567Z,74.74
2023-05-17T00:16:29.247Z,74.79
2023-05-17T00:18:55.990Z,75.27
2023-05-17T00:21:22.719Z,75.53
2023-05-17T00:23:49.398Z,75.80
2023-05-17T00:26:16.051Z,75.95
2023-05-17T00:28:43.618Z,75.88
2023-05-17T00:31:10.541Z,75.83
2023-05-17T00:33:37.248Z,75.80
2023-05-17T00:36:04.436Z,75.57
2023-05-17T00:38:31.192Z,75.19
2023-05-17T00:40:57.869Z,74.99
2023-05-17T00:43:26.333Z,74.90
2023-05-17T00:45:53.187Z,75.13
2023-05-17T00:48:25.672Z,75.14
2023-05-17T00:50:53.654Z,75.19
2023-05-17T00:53:20.420Z,75.08
2023-05-17T00:55:47.096Z,74.97
2023-05-17T00:58:14.402Z,74.93
2023-05-17T01:00:41.194Z,74.77
2023-05-17T01:03:08.276Z,74.60
2023-05-17T01:05:35.096Z,74.65
2023-05-17T01:08:02.866Z,74.45
2023-05-17T01:10:41.591Z,74.48
2023-05-17T01:13:16.003Z,74.51
2023-05-17T01:15:45.756Z,74.58
2023-05-17T01:18:22.043Z,74.85
2023-05-17T01:20:48.877Z,75.11
2023-05-17T01:23:34.401Z,75.08
2023-05-17T01:26:10.952Z,75.05
2023-05-17T01:28:38.365Z,75.12
2023-05-17T01:31:05.123Z,75.31
2023-05-17T01:33:32.007Z,75.35
2023-05-17T01:35:58.854Z,75.44
2023-05-17T01:38:25.532Z,75.89
2023-05-17T01:40:57.295Z,76.14
2023-05-17T01:43:52.257Z,76.36
2023-05-17T01:46:18.911Z,76.67
2023-05-17T01:48:50.230Z,76.96
2023-05-17T01:51:18.984Z,77.26
2023-05-17T01:53:51.559Z,77.25
2023-05-17T01:56:22.403Z,77.27
2023-05-17T01:58:49.152Z,77.42
2023-05-17T02:01:16.416Z,77.33
2023-05-17T02:03:43.153Z,77.35
2023-05-17T02:06:09.983Z,77.35
2023-05-17T02:08:36.680Z,77.55
2023-05-17T02:11:03.659Z,77.32
2023-05-17T02:13:30.890Z,77.24
2023-05-17T02:16:01.702Z,77.12
2023-05-17T02:18:29.107Z,77.04
2023-05-17T02:20:56.232Z,77.00
2023-05-17T02:23:25.025Z,77.09
2023-05-17T02:25:52.694Z,77.04
2023-05-17T02:28:19.442Z,77.40
2023-05-17T02:30:46.247Z,77.37
2023-05-17T02:33:13.503Z,77.65
2023-05-17T02:35:40.370Z,77.90
2023-05-17T02:38:07.082Z,78.41
2023-05-17T02:40:33.765Z,78.82
2023-05-17T02:43:02.838Z,79.23
2023-05-17T02:45:29.721Z,79.45
2023-05-17T02:47:56.618Z,79.45
2023-05-17T02:50:23.289Z,79.60
2023-05-17T02:52:50.917Z,79.68
2023-05-17T02:55:17.846Z,79.64
2023-05-17T02:57:44.785Z,79.46
2023-05-17T03:00:11.947Z,79.50
2023-05-17T03:02:38.760Z,79.47
2023-05-17T03:05:06.627Z,79.42
2023-05-17T03:07:33.320Z,79.52
2023-05-17T03:10:00.152Z,79.56
2023-05-17T03:12:30.946Z,79.80
2023-05-17T03:14:57.856Z,80.17
2023-05-17T03:17:24.652Z,80.13
2023-05-17T03:19:51.509Z,80.06
2023-05-17T03:22:18.376Z,80.06
2023-05-17T03:24:45.008Z,80.09
2023-05-17T03:27:11.833Z,79.78
2023-05-17T03:29:39.827Z,79.60
2023-05-17T03:32:06.992Z,79.08
2023-05-17T03:34:33.961Z,78.72
2023-05-17T03:37:01.404Z,78.53
2023-05-17T03:39:28.090Z,78.33
2023-05-17T03:41:55.019Z,78.27
2023-05-17T03:44:22.540Z,78.22
2023-05-17T03:46:49.730Z,77.90
2023-05-17T03:49:17.539Z,77.42
2023-05-17T03:51:45.279Z,77.07
2023-05-17T03:54:12.062Z,76.66
2023-05-17T03:56:38.801Z,75.95
2023-05-17T03:59:05.663Z,75.44
2023-05-17T04:01:33.330Z,74.73
2023-05-17T04:04:01.400Z,74.28
2023-05-17T04:06:28.402Z,74.09
2023-05-17T04:08:55.802Z,73.86
2023-05-17T04:11:24.432Z,73.97
2023-05-17T04:13:51.776Z,73.81
2023-05-17T04:16:18.582Z,73.58
2023-05-17T04:18:45.763Z,73.29
2023-05-17T04:21:12.838Z,73.17
2023-05-17T04:23:39.708Z,73.33
2023-05-17T04:26:06.384Z,73.60
2023-05-17T04:28:35.489Z,73.44
2023-05-17T04:31:02.803Z,73.54
2023-05-17T04:33:29.718Z,73.21
2023-05-17T04:35:57.331Z,72.62
2023-05-17T04:38:25.194Z,72.08
2023-05-17T04:40:52.141Z,71.51
2023-05-17T04:43:19.264Z,71.84
2023-05-17T04:45:46.819Z,71.50
2023-05-17T04:48:15.044Z,71.24
2023-05-17T04:50:45.652Z,70.57
2023-05-17T04:53:12.307Z,69.90
2023-05-17T04:55:39.064Z,69.50
2023-05-17T04:58:05.933Z,69.65
2023-05-17T05:00:33.454Z,69.71
2023-05-17T05:03:05.127Z,69.64
2023-05-17T05:05:32.261Z,69.87
2023-05-17T05:07:59.054Z,69.81
2023-05-17T05:10:28.840Z,69.73
2023-05-17T05:12:56.240Z,70.04
2023-05-17T05:15:23.315Z,70.31
2023-05-17T05:17:54.825Z,70.39
2023-05-17T05:20:21.769Z,70.36
2023-05-17T05:22:48.403Z,69.83
2023-05-17T05:25:17.102Z,69.76
2023-05-17T05:27:44.544Z,69.08
2023-05-17T05:30:12.466Z,67.83
2023-05-17T05:32:39.440Z,67.50
2023-05-17T05:35:07.022Z,67.62
2023-05-17T05:37:33.977Z,67.23
2023-05-17T05:40:01.122Z,67.04
2023-05-17T05:42:29.717Z,66.58
2023-05-17T05:44:56.384Z,65.98
2023-05-17T05:47:23.578Z,65.39
2023-05-17T05:49:50.665Z,64.86
2023-05-17T05:52:17.567Z,64.04
2023-05-17T05:54:45.152Z,63.12
2023-05-17T05:57:11.836Z,62.28
2023-05-17T05:59:39.496Z,61.98
2023-05-17T06:02:06.826Z,61.57
2023-05-17T06:04:44.475Z,61.08
2023-05-17T06:07:13.058Z,60.65
2023-05-17T06:09:39.702Z,60.54
2023-05-17T06:12:06.530Z,60.30
2023-05-17T06:14:33.211Z,60.06
2023-05-17T06:16:59.863Z,60.08
2023-05-17T06:19:26.659Z,59.78
2023-05-17T06:21:53.566Z,59.21
2023-05-17T06:24:20.300Z,58.93
2023-05-17T06:26:49.880Z,58.29
2023-05-17T06:29:16.563Z,57.74
2023-05-17T06:31:43.228Z,57.71
2023-05-17T06:34:10.008Z,57.30
2023-05-17T06:36:38.465Z,56.97
2023-05-17T06:39:05.566Z,56.66
2023-05-17T06:41:32.307Z,55.98
2023-05-17T06:43:59.006Z,55.73
2023-05-17T06:46:28.472Z,54.89
2023-05-17T06:48:55.806Z,54.88
2023-05-17T06:51:22.562Z,54.44
2023-05-17T06:53:50.370Z,54.02
2023-05-17T06:56:17.124Z,53.92
2023-05-17T06:58:43.777Z,53.46
2023-05-17T07:01:10.458Z,52.69
2023-05-17T07:03:40.066Z,52.43
2023-05-17T07:06:06.986Z,51.49
2023-05-17T07:08:34.873Z,50.57
2023-05-17T07:11:02.991Z,50.46
2023-05-17T07:13:30.286Z,50.68
2023-05-17T07:15:57.014Z,49.53
2023-05-17T07:18:23.780Z,48.02
2023-05-17T07:20:50.788Z,47.34
2023-05-17T07:23:18.236Z,46.18
2023-05-17T07:25:46.352Z,44.37
2023-05-17T07:28:13.043Z,43.63
2023-05-17T07:30:39.733Z,42.25
2023-05-17T07:33:06.369Z,42.13
2023-05-17T07:35:33.189Z,42.06
2023-05-17T07:37:59.822Z,41.25
2023-05-17T07:40:26.465Z,40.75
2023-05-17T07:42:53.178Z,39.70
2023-05-17T07:45:19.819Z,39.64
2023-05-17T07:47:46.721Z,38.71
2023-05-17T07:50:13.847Z,38.68
2023-05-17T07:52:40.580Z,38.01
2023-05-17T07:55:07.979Z,37.77
2023-05-17T07:57:34.759Z,37.45
2023-05-17T08:00:01.477Z,37.14
2023-05-17T08:02:39.200Z,36.88
2023-05-17T08:05:07.565Z,36.01
2023-05-17T08:07:34.550Z,35.53
2023-05-17T08:10:01.314Z,35.64
2023-05-17T08:12:28.361Z,35.30
2023-05-17T08:14:55.037Z,35.05
2023-05-17T08:17:22.557Z,34.75
2023-05-17T08:19:49.383Z,34.51
2023-05-17T08:22:16.361Z,34.46
2023-05-17T08:24:45.170Z,34.06
2023-05-17T08:27:11.892Z,33.54
2023-05-17T08:29:39.749Z,33.05
2023-05-17T08:32:07.517Z,32.52
2023-05-17T08:34:34.119Z,31.89
2023-05-17T08:37:00.872Z,31.83
2023-05-17T08:39:27.791Z,31.43
2023-05-17T08:41:59.591Z,31.48
2023-05-17T08:44:28.230Z,31.58
2023-05-17T08:46:55.182Z,31.76
2023-05-17T08:49:26.000Z,31.16
2023-05-17T08:51:54.126Z,31.29
2023-05-17T08:54:22.740Z,31.36
2023-05-17T08:56:52.312Z,30.88
2023-05-17T08:59:22.095Z,31.25
2023-05-17T09:01:52.083Z,31.94
2023-05-17T09:04:18.856Z,31.61
2023-05-17T09:06:45.886Z,31.80
2023-05-17T09:09:12.650Z,31.90
2023-05-17T09:13:07.130Z,30.59
2023-05-17T09:15:34.432Z,30.45
2023-05-17T09:18:01.378Z,30.53
2023-05-17T09:20:35.083Z,29.82
2023-05-17T09:23:02.281Z,30.23
2023-05-17T09:25:29.251Z,29.35
2023-05-17T09:28:02.252Z,29.12
2023-05-17T09:30:33.161Z,29.35
2023-05-17T09:33:07.516Z,29.64
2023-05-17T09:35:35.090Z,28.76
2023-05-17T09:38:12.574Z,28.30
2023-05-17T09:40:43.358Z,27.79
2023-05-17T09:43:11.014Z,27.87
2023-05-17T09:45:37.940Z,27.60
2023-05-17T09:48:15.218Z,27.60
2023-05-17T09:50:52.412Z,27.00
2023-05-17T09:53:29.438Z,26.97
2023-05-17T09:55:57.393Z,26.72
2023-05-17T09:58:24.745Z,26.38
2023-05-17T10:01:01.929Z,25.71
2023-05-17T10:03:34.327Z,25.00
2023-05-17T10:06:03.972Z,24.41
2023-05-17T10:08:31.019Z,24.61
2023-05-17T10:11:06.114Z,24.73
2023-05-17T10:13:36.219Z,24.04
2023-05-17T10:16:02.921Z,24.24
2023-05-17T10:18:30.273Z,23.90
2023-05-17T10:20:57.166Z,23.45
2023-05-17T10:23:23.807Z,23.72
2023-05-17T10:25:50.888Z,23.92
2023-05-17T10:28:18.052Z,23.71
2023-05-17T10:30:44.709Z,23.98
2023-05-17T10:33:11.774Z,24.36
2023-05-17T10:35:39.401Z,24.29
2023-05-17T10:38:07.545Z,23.55
2023-05-17T10:40:34.557Z,23.70
2023-05-17T10:43:01.776Z,24.01
2023-05-17T10:45:28.799Z,23.76
2023-05-17T10:47:56.129Z,22.62
2023-05-17T10:50:24.844Z,22.39
2023-05-17T10:52:52.387Z,22.39
2023-05-17T10:55:36.560Z,23.05
2023-05-17T10:58:16.743Z,23.14
2023-05-17T11:00:46.000Z,22.58
2023-05-17T11:03:14.022Z,22.17
2023-05-17T11:06:13.232Z,22.50
2023-05-17T11:09:05.928Z,22.74
2023-05-17T11:11:32.608Z,22.55
2023-05-17T11:14:03.048Z,22.50
2023-05-17T11:16:37.021Z,22.19
2023-05-17T11:19:10.759Z,21.93
2023-05-17T11:21:47.470Z,21.76
2023-05-17T11:24:24.071Z,21.68
2023-05-17T11:26:50.779Z,21.25
2023-05-17T11:29:17.544Z,21.40
2023-05-17T11:31:45.235Z,21.72
2023-05-17T11:34:12.375Z,21.82
2023-05-17T11:36:52.108Z,22.02
2023-05-17T11:39:23.088Z,21.95
2023-05-17T11:41:50.660Z,22.40
2023-05-17T11:44:25.352Z,22.77
2023-05-17T11:46:52.267Z,22.50
2023-05-17T11:49:34.349Z,22.05
2023-05-17T11:52:02.975Z,22.25
2023-05-17T11:54:29.673Z,22.53
2023-05-17T11:56:56.312Z,22.23
2023-05-17T11:59:23.041Z,21.91
2023-05-17T12:01:51.180Z,23.53
2023-05-17T12:04:25.730Z,25.61
2023-05-17T12:06:53.660Z,26.30
2023-05-17T12:09:21.307Z,27.62
2023-05-17T12:11:48.205Z,28.20
2023-05-17T12:14:16.698Z,28.84
2023-05-17T12:16:44.517Z,29.49
2023-05-17T12:19:25.019Z,30.13
2023-05-17T12:21:51.821Z,30.74
2023-05-17T12:24:18.660Z,30.90
2023-05-17T12:26:46.377Z,31.10
2023-05-17T12:29:17.969Z,31.16
2023-05-17T12:31:47.081Z,31.35
2023-05-17T12:34:14.341Z,31.67
2023-05-17T12:36:41.182Z,31.96
2023-05-17T12:39:09.478Z,31.91
2023-05-17T12:41:37.166Z,32.34
2023-05-17T12:44:14.411Z,31.91
2023-05-17T12:46:41.756Z,31.67
2023-05-17T12:49:09.357Z,32.10
2023-05-17T12:51:45.764Z,32.41
2023-05-17T12:54:16.006Z,32.41
2023-05-17T12:56:45.671Z,32.75
2023-05-17T12:59:17.156Z,32.56
2023-05-17T13:01:47.273Z,32.17
2023-05-17T13:04:15.022Z,32.12
2023-05-17T13:06:50.936Z,32.26
2023-05-17T13:09:18.712Z,32.18
2023-05-17T13:11:52.275Z,31.67
2023-05-17T13:14:38.328Z,31.45
2023-05-17T13:17:07.135Z,31.30
2023-05-17T13:19:35.892Z,31.55
2023-05-17T13:22:03.758Z,31.85
2023-05-17T13:24:31.530Z,31.29
2023-05-17T13:26:58.372Z,30.77
2023-05-17T13:29:37.998Z,31.14
2023-05-17T13:32:07.238Z,31.60
2023-05-17T13:34:33.894Z,31.21
2023-05-17T13:37:00.557Z,30.79
2023-05-17T13:39:27.418Z,30.19
2023-05-17T13:41:54.366Z,30.37
2023-05-17T13:44:21.330Z,30.62
2023-05-17T13:46:48.022Z,30.31
2023-05-17T13:49:14.756Z,30.31
2023-05-17T13:51:42.626Z,29.83
2023-05-17T13:54:10.645Z,29.46
2023-05-17T13:56:37.430Z,29.65
2023-05-17T13:59:04.294Z,29.67
2023-05-17T14:01:31.795Z,29.15
2023-05-17T14:04:00.878Z,29.11
2023-05-17T14:06:28.398Z,28.35
2023-05-17T14:08:57.162Z,27.91
2023-05-17T14:11:23.852Z,28.57
2023-05-17T14:13:50.683Z,28.77
2023-05-17T14:16:17.345Z,29.45
2023-05-17T14:18:44.109Z,29.54
2023-05-17T14:21:11.110Z,29.77
2023-05-17T14:23:37.849Z,29.79
2023-05-17T14:26:07.635Z,29.96
2023-05-17T14:28:38.193Z,29.62
2023-05-17T14:31:06.704Z,28.95
2023-05-17T14:33:33.605Z,28.93
2023-05-17T14:36:00.595Z,29.05
2023-05-17T14:38:27.300Z,29.19
2023-05-17T14:40:54.002Z,29.77
2023-05-17T14:43:21.112Z,30.13
2023-05-17T14:45:47.831Z,30.47
2023-05-17T14:48:14.548Z,30.03
2023-05-17T14:50:41.611Z,30.39
2023-05-17T14:53:08.336Z,30.07
2023-05-17T14:55:35.628Z,29.98
2023-05-17T14:58:02.729Z,29.72
2023-05-17T15:00:29.590Z,29.82
2023-05-17T15:02:56.863Z,29.69
2023-05-17T15:05:24.440Z,29.76
2023-05-17T15:07:51.351Z,29.74
2023-05-17T15:10:18.161Z,29.49
2023-05-17T15:12:44.869Z,29.57
2023-05-17T15:15:12.636Z,29.52
2023-05-17T15:17:39.324Z,29.51
2023-05-17T15:20:07.535Z,29.18
2023-05-17T15:22:34.306Z,29.37
2023-05-17T15:25:01.259Z,29.67
2023-05-17T15:27:27.951Z,29.73
2023-05-17T15:29:54.817Z,29.80
2023-05-17T15:32:21.596Z,29.98
2023-05-17T15:34:48.424Z,29.83
2023-05-17T15:37:15.293Z,29.62
2023-05-17T15:39:41.953Z,29.93
2023-05-17T15:42:08.643Z,30.03
2023-05-17T15:44:35.563Z,30.17
2023-05-17T15:47:03.539Z,30.13
2023-05-17T15:49:30.506Z,30.44
2023-05-17T15:51:57.444Z,30.36
2023-05-17T15:54:24.144Z,30.65
2023-05-17T15:56:51.084Z,31.13
2023-05-17T15:59:17.800Z,31.51
2023-05-17T16:01:46.400Z,32.03
2023-05-17T16:04:13.860Z,32.17
2023-05-17T16:06:41.238Z,32.38
2023-05-17T16:09:08.597Z,32.37
2023-05-17T16:11:35.343Z,32.63
2023-05-17T16:14:02.200Z,32.72
2023-05-17T16:16:28.915Z,32.78
2023-05-17T16:18:55.855Z,32.97
2023-05-17T16:21:22.895Z,33.28
2023-05-17T16:23:49.657Z,33.69
2023-05-17T16:26:16.322Z,33.65
2023-05-17T16:28:43.013Z,33.97
2023-05-17T16:31:09.790Z,34.06
2023-05-17T16:33:36.726Z,34.26
2023-05-17T16:36:04.869Z,34.54
2023-05-17T16:38:31.537Z,34.95
2023-05-17T16:41:03.117Z,35.54
2023-05-17T16:43:31.057Z,36.70
2023-05-17T16:45:57.737Z,37.35
2023-05-17T16:48:24.609Z,38.13
2023-05-17T16:50:51.620Z,38.85
2023-05-17T16:53:18.986Z,39.08
2023-05-17T16:55:45.804Z,39.84
2023-05-17T16:58:13.259Z,42.19
2023-05-17T17:00:39.993Z,42.54
2023-05-17T17:03:09.469Z,42.78
2023-05-17T17:05:37.324Z,43.63
2023-05-17T17:08:04.189Z,44.50
2023-05-17T17:10:31.284Z,44.95
2023-05-17T17:12:58.340Z,44.52
2023-05-17T17:15:25.027Z,44.98
2023-05-17T17:17:52.479Z,45.30
2023-05-17T17:20:19.813Z,45.89
2023-05-17T17:22:47.009Z,47.00
2023-05-17T17:25:13.651Z,47.24
2023-05-17T17:27:40.497Z,47.48
2023-05-17T17:30:10.327Z,48.47
2023-05-17T17:32:37.137Z,47.48
2023-05-17T17:35:04.418Z,46.43
2023-05-17T17:37:31.249Z,45.38
2023-05-17T17:39:57.875Z,45.71
2023-05-17T17:42:24.557Z,47.63
2023-05-17T17:44:51.313Z,47.44
2023-05-17T17:47:18.050Z,46.92
2023-05-17T17:49:44.800Z,46.95
2023-05-17T17:52:11.457Z,46.52
2023-05-17T17:54:38.264Z,46.36
2023-05-17T17:57:05.390Z,46.96
2023-05-17T17:59:32.305Z,46.88
2023-05-17T18:01:59.842Z,47.29
2023-05-17T18:04:27.393Z,48.00
2023-05-17T18:06:55.042Z,48.07
2023-05-17T18:09:22.945Z,48.30
2023-05-17T18:11:49.734Z,48.61
2023-05-17T18:14:16.426Z,48.59
2023-05-17T18:16:43.342Z,48.77
2023-05-17T18:19:10.153Z,49.32
2023-05-17T18:21:36.925Z,50.04
2023-05-17T18:24:03.846Z,50.37
2023-05-17T18:26:30.654Z,50.64
2023-05-17T18:28:57.310Z,51.26
2023-05-17T18:31:23.966Z,51.16
2023-05-17T18:33:50.912Z,51.06
2023-05-17T18:36:17.615Z,51.04
2023-05-17T18:38:44.592Z,51.53
2023-05-17T18:41:11.375Z,51.48
2023-05-17T18:43:38.076Z,51.66
2023-05-17T18:46:04.730Z,51.85
2023-05-17T18:48:36.146Z,52.14
2023-05-17T18:51:03.069Z,52.05
2023-05-17T18:53:30.066Z,52.26
2023-05-17T18:56:01.523Z,52.56
2023-05-17T18:58:29.108Z,52.30
2023-05-17T19:00:56.065Z,52.31
2023-05-17T19:03:22.927Z,52.65
2023-05-17T19:05:49.617Z,52.80
2023-05-17T19:08:16.269Z,52.69
2023-05-17T19:10:42.960Z,52.91
2023-05-17T19:13:09.868Z,53.18
2023-05-17T19:15:36.646Z,53.24
2023-05-17T19:18:03.395Z,53.45
2023-05-17T19:20:30.888Z,53.72
2023-05-17T19:22:57.992Z,53.91
2023-05-17T19:25:24.701Z,54.26
2023-05-17T19:27:51.567Z,55.43
2023-05-17T19:30:18.740Z,56.41
2023-05-17T19:32:45.627Z,56.47
2023-05-17T19:35:12.423Z,56.25
2023-05-17T19:37:39.104Z,56.24
2023-05-17T19:40:06.558Z,56.37
2023-05-17T19:42:33.369Z,56.32
2023-05-17T19:45:00.064Z,56.61
2023-05-17T19:47:27.195Z,56.74
2023-05-17T19:49:53.973Z,56.69
2023-05-17T19:52:20.682Z,56.54
2023-05-17T19:54:47.793Z,56.56
2023-05-17T19:57:14.478Z,56.51
2023-05-17T19:59:42.088Z,56.53
2023-05-17T20:02:09.309Z,56.48
2023-05-17T20:04:36.264Z,56.26
2023-05-17T20:07:02.903Z,56.17
2023-05-17T20:09:32.036Z,56.38
2023-05-17T20:11:58.763Z,56.39
2023-05-17T20:14:26.955Z,56.68
2023-05-17T20:16:53.959Z,56.87
2023-05-17T20:19:20.942Z,57.06
2023-05-17T20:21:48.263Z,57.55
2023-05-17T20:24:14.993Z,57.71
2023-05-17T20:26:44.985Z,57.81
2023-05-17T20:29:12.176Z,58.08
2023-05-17T20:31:38.902Z,58.17
2023-05-17T20:34:06.585Z,58.30
2023-05-17T20:36:33.786Z,58.70
2023-05-17T20:39:00.806Z,59.40
2023-05-17T20:41:27.613Z,59.47
2023-05-17T20:43:54.652Z,59.43
2023-05-17T20:46:21.596Z,59.44
2023-05-17T20:48:49.915Z,59.71
2023-05-17T20:51:18.172Z,59.74
2023-05-17T20:53:46.414Z,59.77
2023-05-17T20:56:14.299Z,59.77
2023-05-17T20:58:41.329Z,59.96
2023-05-17T21:01:08.168Z,60.46
2023-05-17T21:03:35.131Z,60.64
2023-05-17T21:06:02.143Z,60.80
2023-05-17T21:08:29.160Z,60.88
2023-05-17T21:10:56.171Z,60.98
2023-05-17T21:13:25.720Z,61.13
2023-05-17T21:15:55.907Z,61.34
2023-05-17T21:18:23.730Z,61.34
2023-05-17T21:20:51.131Z,61.39
2023-05-17T21:23:18.391Z,61.57
2023-05-17T21:25:45.066Z,61.76
2023-05-17T21:31:09.344Z,62.36
2023-05-17T21:33:36.194Z,62.50
2023-05-17T21:36:03.289Z,62.76
2023-05-17T21:38:30.133Z,62.70
2023-05-17T21:40:56.764Z,62.78
2023-05-17T21:43:23.464Z,62.92
2023-05-17T21:45:50.160Z,63.06
2023-05-17T21:48:16.857Z,63.33
2023-05-17T21:50:43.528Z,63.65
2023-05-17T21:53:10.371Z,63.72
2023-05-17T21:55:56.280Z,63.88
2023-05-17T21:58:23.785Z,63.93
2023-05-17T22:00:50.582Z,64.24
2023-05-17T22:03:17.348Z,64.40
2023-05-17T22:05:44.067Z,64.60
2023-05-17T22:08:10.739Z,64.75
2023-05-17T22:10:37.413Z,64.85
2023-05-17T22:13:06.212Z,64.81
2023-05-17T22:15:33.151Z,65.06
2023-05-17T22:18:03.324Z,65.22
2023-05-17T22:20:30.527Z,65.47
2023-05-17T22:22:57.664Z,65.72
2023-05-17T22:25:24.307Z,65.96
2023-05-17T22:27:51.142Z,66.28
2023-05-17T22:30:17.851Z,66.25
2023-05-17T22:32:44.548Z,66.60
2023-05-17T22:35:11.328Z,66.67
2023-05-17T22:37:38.238Z,66.65
2023-05-17T22:40:06.637Z,66.71
2023-05-17T22:42:33.320Z,66.80
2023-05-17T22:45:00.195Z,66.74
2023-05-17T22:47:27.219Z,66.69
2023-05-17T22:49:53.887Z,66.77
2023-05-17T22:52:20.709Z,66.91
2023-05-17T22:54:47.421Z,67.09
2023-05-17T22:57:14.236Z,67.45
2023-05-17T22:59:43.862Z,67.52
2023-05-17T23:02:11.882Z,67.58
2023-05-17T23:04:40.011Z,67.69
2023-05-17T23:07:10.125Z,67.89
2023-05-17T23:09:40.741Z,68.23
2023-05-17T23:12:09.059Z,68.42
2023-05-17T23:14:36.444Z,68.71
2023-05-17T23:17:04.175Z,68.74
2023-05-17T23:19:31.592Z,68.86
2023-05-17T23:22:02.816Z,69.05
2023-05-17T23:24:29.583Z,69.13
2023-05-17T23:26:56.277Z,68.99
2023-05-17T23:29:24.050Z,69.00
2023-05-17T23:31:50.927Z,68.98
2023-05-17T23:34:17.750Z,68.97
2023-05-17T23:36:44.428Z,69.16
2023-05-17T23:39:11.133Z,69.09
2023-05-17T23:41:37.871Z,69.31
2023-05-17T23:44:05.208Z,69.31
2023-05-17T23:46:32.100Z,69.32
2023-05-17T23:48:58.791Z,69.54
2023-05-17T23:51:25.518Z,69.72
2023-05-17T23:53:52.480Z,69.85
2023-05-17T23:56:19.426Z,70.12
2023-05-17T23:58:46.318Z,70.17
